sensor_id;sensor_type;location;lat;lon;timestamp;P1;durP1;ratioP1;P2;durP2;ratioP2
25972;SDS011;13765;51.166;4.466;2023-05-10T00:00:19;16.02;;;4.50;;
25972;SDS011;13765;51.166;4.466;2023-05-10T00:02:47;14.57;;;5.63;;
25972;SDS011;13765;51.166;4.466;2023-05-10T00:05:13;17.38;;;5.50;;
25972;SDS011;13765;51.166;4.466;2023-05-10T00:07:43;17.15;;;4.75;;
25972;SDS011;13765;51.166;4.466;2023-05-10T00:10:12;14.98;;;4.72;;
25972;SDS011;13765;51.166;4.466;2023-05-10T00:12:37;15.50;;;5.25;;
25972;SDS011;13765;51.166;4.466;2023-05-10T00:15:05;16.90;;;5.28;;
25972;SDS011;13765;51.166;4.466;2023-05-10T00:17:32;17.73;;;5.40;;
25972;SDS011;13765;51.166;4.466;2023-05-10T00:20:00;14.15;;;5.05;;
25972;SDS011;13765;51.166;4.466;2023-05-10T00:22:26;22.77;;;5.30;;
25972;SDS011;13765;51.166;4.466;2023-05-10T00:24:51;17.92;;;5.57;;
25972;SDS011;13765;51.166;4.466;2023-05-10T00:27:17;16.35;;;6.13;;
25972;SDS011;13765;51.166;4.466;2023-05-10T00:29:45;21.08;;;6.65;;
25972;SDS011;13765;51.166;4.466;2023-05-10T00:32:11;18.00;;;5.75;;
25972;SDS011;13765;51.166;4.466;2023-05-10T00:34:41;18.02;;;6.07;;
25972;SDS011;13765;51.166;4.466;2023-05-10T00:37:07;15.18;;;4.95;;
25972;SDS011;13765;51.166;4.466;2023-05-10T00:39:34;18.45;;;5.22;;
25972;SDS011;13765;51.166;4.466;2023-05-10T00:42:00;22.13;;;6.32;;
25972;SDS011;13765;51.166;4.466;2023-05-10T00:44:26;21.00;;;5.55;;
25972;SDS011;13765;51.166;4.466;2023-05-10T00:46:51;16.67;;;6.15;;
25972;SDS011;13765;51.166;4.466;2023-05-10T00:49:20;20.17;;;7.05;;
25972;SDS011;13765;51.166;4.466;2023-05-10T00:51:48;18.02;;;5.82;;
25972;SDS011;13765;51.166;4.466;2023-05-10T00:54:15;22.02;;;6.15;;
25972;SDS011;13765;51.166;4.466;2023-05-10T00:56:41;18.48;;;5.82;;
25972;SDS011;13765;51.166;4.466;2023-05-10T00:59:14;17.33;;;5.95;;
25972;SDS011;13765;51.166;4.466;2023-05-10T01:01:45;19.33;;;5.53;;
25972;SDS011;13765;51.166;4.466;2023-05-10T01:04:12;18.13;;;5.60;;
25972;SDS011;13765;51.166;4.466;2023-05-10T01:06:40;18.83;;;6.07;;
25972;SDS011;13765;51.166;4.466;2023-05-10T01:09:06;17.70;;;5.22;;
25972;SDS011;13765;51.166;4.466;2023-05-10T01:11:34;20.80;;;6.07;;
25972;SDS011;13765;51.166;4.466;2023-05-10T01:14:01;28.20;;;6.05;;
25972;SDS011;13765;51.166;4.466;2023-05-10T01:16:36;22.92;;;6.95;;
25972;SDS011;13765;51.166;4.466;2023-05-10T01:27:14;27.48;;;8.52;;
25972;SDS011;13765;51.166;4.466;2023-05-10T01:35:30;22.48;;;7.25;;
25972;SDS011;13765;51.166;4.466;2023-05-10T01:41:24;20.88;;;6.40;;
25972;SDS011;13765;51.166;4.466;2023-05-10T01:46:56;20.42;;;6.22;;
25972;SDS011;13765;51.166;4.466;2023-05-10T01:49:32;20.63;;;6.28;;
25972;SDS011;13765;51.166;4.466;2023-05-10T01:52:08;20.42;;;6.35;;
25972;SDS011;13765;51.166;4.466;2023-05-10T01:54:38;20.70;;;7.65;;
25972;SDS011;13765;51.166;4.466;2023-05-10T01:57:12;19.48;;;6.70;;
25972;SDS011;13765;51.166;4.466;2023-05-10T01:59:42;22.85;;;7.07;;
25972;SDS011;13765;51.166;4.466;2023-05-10T02:02:10;25.75;;;7.25;;
25972;SDS011;13765;51.166;4.466;2023-05-10T02:04:38;21.65;;;6.40;;
25972;SDS011;13765;51.166;4.466;2023-05-10T02:07:07;18.35;;;6.03;;
25972;SDS011;13765;51.166;4.466;2023-05-10T02:09:34;23.13;;;7.57;;
25972;SDS011;13765;51.166;4.466;2023-05-10T02:12:04;19.58;;;6.70;;
25972;SDS011;13765;51.166;4.466;2023-05-10T02:14:36;25.60;;;8.65;;
25972;SDS011;13765;51.166;4.466;2023-05-10T02:17:04;20.05;;;7.57;;
25972;SDS011;13765;51.166;4.466;2023-05-10T02:19:33;22.45;;;6.95;;
25972;SDS011;13765;51.166;4.466;2023-05-10T02:22:03;19.20;;;6.35;;
25972;SDS011;13765;51.166;4.466;2023-05-10T02:24:30;22.35;;;6.65;;
25972;SDS011;13765;51.166;4.466;2023-05-10T02:26:56;22.85;;;7.38;;
25972;SDS011;13765;51.166;4.466;2023-05-10T02:29:25;21.73;;;7.75;;
25972;SDS011;13765;51.166;4.466;2023-05-10T02:31:54;22.42;;;7.25;;
25972;SDS011;13765;51.166;4.466;2023-05-10T02:34:21;20.73;;;8.38;;
25972;SDS011;13765;51.166;4.466;2023-05-10T02:36:53;23.95;;;7.50;;
25972;SDS011;13765;51.166;4.466;2023-05-10T02:39:20;22.30;;;7.35;;
25972;SDS011;13765;51.166;4.466;2023-05-10T02:41:46;24.30;;;8.20;;
25972;SDS011;13765;51.166;4.466;2023-05-10T02:44:19;21.13;;;7.18;;
25972;SDS011;13765;51.166;4.466;2023-05-10T02:46:47;22.73;;;7.22;;
25972;SDS011;13765;51.166;4.466;2023-05-10T02:49:15;26.23;;;8.25;;
25972;SDS011;13765;51.166;4.466;2023-05-10T02:51:42;31.40;;;8.63;;
25972;SDS011;13765;51.166;4.466;2023-05-10T02:54:12;25.05;;;8.07;;
25972;SDS011;13765;51.166;4.466;2023-05-10T02:56:46;24.98;;;9.63;;
25972;SDS011;13765;51.166;4.466;2023-05-10T02:59:18;30.00;;;9.52;;
25972;SDS011;13765;51.166;4.466;2023-05-10T03:01:46;25.52;;;10.23;;
25972;SDS011;13765;51.166;4.466;2023-05-10T03:04:14;28.75;;;9.38;;
25972;SDS011;13765;51.166;4.466;2023-05-10T03:06:43;30.35;;;10.15;;
25972;SDS011;13765;51.166;4.466;2023-05-10T03:09:09;27.63;;;10.40;;
25972;SDS011;13765;51.166;4.466;2023-05-10T03:16:55;47.70;;;15.55;;
25972;SDS011;13765;51.166;4.466;2023-05-10T03:19:22;62.35;;;22.73;;
25972;SDS011;13765;51.166;4.466;2023-05-10T03:21:55;70.43;;;24.50;;
25972;SDS011;13765;51.166;4.466;2023-05-10T03:24:33;65.68;;;21.08;;
25972;SDS011;13765;51.166;4.466;2023-05-10T03:27:01;75.65;;;24.55;;
25972;SDS011;13765;51.166;4.466;2023-05-10T03:29:29;65.63;;;24.58;;
25972;SDS011;13765;51.166;4.466;2023-05-10T03:31:57;62.97;;;22.15;;
25972;SDS011;13765;51.166;4.466;2023-05-10T03:34:24;59.75;;;21.73;;
25972;SDS011;13765;51.166;4.466;2023-05-10T03:36:50;73.45;;;23.65;;
25972;SDS011;13765;51.166;4.466;2023-05-10T03:39:18;55.25;;;19.92;;
25972;SDS011;13765;51.166;4.466;2023-05-10T03:41:44;52.92;;;18.95;;
25972;SDS011;13765;51.166;4.466;2023-05-10T03:44:10;44.88;;;15.05;;
25972;SDS011;13765;51.166;4.466;2023-05-10T03:46:35;44.50;;;17.35;;
25972;SDS011;13765;51.166;4.466;2023-05-10T03:49:01;48.35;;;17.90;;
25972;SDS011;13765;51.166;4.466;2023-05-10T03:51:27;39.67;;;14.10;;
25972;SDS011;13765;51.166;4.466;2023-05-10T03:53:55;46.60;;;16.13;;
25972;SDS011;13765;51.166;4.466;2023-05-10T03:56:21;46.03;;;15.00;;
25972;SDS011;13765;51.166;4.466;2023-05-10T03:58:46;40.45;;;12.35;;
25972;SDS011;13765;51.166;4.466;2023-05-10T04:01:12;38.20;;;12.20;;
25972;SDS011;13765;51.166;4.466;2023-05-10T04:03:40;38.28;;;12.15;;
25972;SDS011;13765;51.166;4.466;2023-05-10T04:06:08;34.78;;;12.10;;
25972;SDS011;13765;51.166;4.466;2023-05-10T04:08:39;35.58;;;12.65;;
25972;SDS011;13765;51.166;4.466;2023-05-10T04:11:08;30.00;;;9.80;;
25972;SDS011;13765;51.166;4.466;2023-05-10T04:13:37;35.15;;;12.90;;
25972;SDS011;13765;51.166;4.466;2023-05-10T04:16:03;39.33;;;11.68;;
25972;SDS011;13765;51.166;4.466;2023-05-10T04:18:30;27.10;;;9.93;;
25972;SDS011;13765;51.166;4.466;2023-05-10T04:20:58;39.05;;;12.70;;
25972;SDS011;13765;51.166;4.466;2023-05-10T04:23:23;31.38;;;8.35;;
25972;SDS011;13765;51.166;4.466;2023-05-10T04:25:49;29.25;;;11.48;;
25972;SDS011;13765;51.166;4.466;2023-05-10T04:28:14;28.70;;;8.55;;
25972;SDS011;13765;51.166;4.466;2023-05-10T04:30:40;34.28;;;10.98;;
25972;SDS011;13765;51.166;4.466;2023-05-10T04:33:06;31.85;;;10.82;;
25972;SDS011;13765;51.166;4.466;2023-05-10T04:35:32;28.30;;;10.23;;
25972;SDS011;13765;51.166;4.466;2023-05-10T04:37:57;37.70;;;10.45;;
25972;SDS011;13765;51.166;4.466;2023-05-10T04:40:23;32.28;;;11.50;;
25972;SDS011;13765;51.166;4.466;2023-05-10T04:42:49;34.42;;;10.05;;
25972;SDS011;13765;51.166;4.466;2023-05-10T04:45:14;34.58;;;12.20;;
25972;SDS011;13765;51.166;4.466;2023-05-10T04:47:42;33.78;;;10.07;;
25972;SDS011;13765;51.166;4.466;2023-05-10T04:50:08;29.73;;;10.10;;
25972;SDS011;13765;51.166;4.466;2023-05-10T04:52:34;36.22;;;10.60;;
25972;SDS011;13765;51.166;4.466;2023-05-10T04:55:00;35.42;;;13.38;;
25972;SDS011;13765;51.166;4.466;2023-05-10T04:57:25;43.40;;;11.63;;
25972;SDS011;13765;51.166;4.466;2023-05-10T04:59:51;38.08;;;12.43;;
25972;SDS011;13765;51.166;4.466;2023-05-10T05:02:17;34.17;;;11.60;;
25972;SDS011;13765;51.166;4.466;2023-05-10T05:04:42;32.75;;;9.95;;
25972;SDS011;13765;51.166;4.466;2023-05-10T05:07:08;35.05;;;10.20;;
25972;SDS011;13765;51.166;4.466;2023-05-10T05:09:36;37.13;;;11.38;;
25972;SDS011;13765;51.166;4.466;2023-05-10T05:12:04;34.22;;;11.52;;
25972;SDS011;13765;51.166;4.466;2023-05-10T05:14:32;40.53;;;11.80;;
25972;SDS011;13765;51.166;4.466;2023-05-10T05:16:58;33.90;;;11.10;;
25972;SDS011;13765;51.166;4.466;2023-05-10T05:19:23;42.17;;;12.23;;
25972;SDS011;13765;51.166;4.466;2023-05-10T05:21:49;40.78;;;13.05;;
25972;SDS011;13765;51.166;4.466;2023-05-10T05:24:15;42.60;;;11.57;;
25972;SDS011;13765;51.166;4.466;2023-05-10T05:26:43;35.65;;;11.57;;
25972;SDS011;13765;51.166;4.466;2023-05-10T05:29:12;35.53;;;10.80;;
25972;SDS011;13765;51.166;4.466;2023-05-10T05:31:42;36.08;;;12.48;;
25972;SDS011;13765;51.166;4.466;2023-05-10T05:34:07;30.25;;;11.52;;
25972;SDS011;13765;51.166;4.466;2023-05-10T05:36:35;39.40;;;12.45;;
25972;SDS011;13765;51.166;4.466;2023-05-10T05:39:03;33.15;;;11.65;;
25972;SDS011;13765;51.166;4.466;2023-05-10T05:41:29;37.47;;;13.73;;
25972;SDS011;13765;51.166;4.466;2023-05-10T05:43:54;36.28;;;12.93;;
25972;SDS011;13765;51.166;4.466;2023-05-10T05:46:27;33.83;;;11.45;;
25972;SDS011;13765;51.166;4.466;2023-05-10T05:48:53;34.72;;;13.25;;
25972;SDS011;13765;51.166;4.466;2023-05-10T05:51:18;34.05;;;11.50;;
25972;SDS011;13765;51.166;4.466;2023-05-10T05:53:45;35.60;;;13.05;;
25972;SDS011;13765;51.166;4.466;2023-05-10T05:56:10;35.97;;;11.95;;
25972;SDS011;13765;51.166;4.466;2023-05-10T05:58:36;36.38;;;12.27;;
25972;SDS011;13765;51.166;4.466;2023-05-10T06:01:04;31.13;;;11.93;;
25972;SDS011;13765;51.166;4.466;2023-05-10T06:03:30;33.40;;;12.07;;
25972;SDS011;13765;51.166;4.466;2023-05-10T06:05:55;34.70;;;12.65;;
25972;SDS011;13765;51.166;4.466;2023-05-10T06:08:23;39.42;;;13.88;;
25972;SDS011;13765;51.166;4.466;2023-05-10T06:10:49;38.28;;;14.35;;
25972;SDS011;13765;51.166;4.466;2023-05-10T06:13:15;34.38;;;13.43;;
25972;SDS011;13765;51.166;4.466;2023-05-10T06:15:40;41.78;;;14.85;;
25972;SDS011;13765;51.166;4.466;2023-05-10T06:18:06;42.03;;;16.45;;
25972;SDS011;13765;51.166;4.466;2023-05-10T06:20:32;34.40;;;12.60;;
25972;SDS011;13765;51.166;4.466;2023-05-10T06:23:00;37.33;;;13.15;;
25972;SDS011;13765;51.166;4.466;2023-05-10T06:25:25;36.65;;;13.93;;
25972;SDS011;13765;51.166;4.466;2023-05-10T06:27:51;36.72;;;15.35;;
25972;SDS011;13765;51.166;4.466;2023-05-10T06:30:21;36.63;;;14.07;;
25972;SDS011;13765;51.166;4.466;2023-05-10T06:32:53;41.10;;;14.18;;
25972;SDS011;13765;51.166;4.466;2023-05-10T06:35:21;32.85;;;13.60;;
25972;SDS011;13765;51.166;4.466;2023-05-10T06:37:47;37.17;;;13.15;;
25972;SDS011;13765;51.166;4.466;2023-05-10T06:40:12;34.22;;;12.60;;
25972;SDS011;13765;51.166;4.466;2023-05-10T06:42:38;35.70;;;12.60;;
25972;SDS011;13765;51.166;4.466;2023-05-10T06:45:04;34.75;;;12.20;;
25972;SDS011;13765;51.166;4.466;2023-05-10T06:47:30;35.10;;;13.15;;
25972;SDS011;13765;51.166;4.466;2023-05-10T06:49:58;38.78;;;13.90;;
25972;SDS011;13765;51.166;4.466;2023-05-10T06:52:24;37.55;;;13.13;;
25972;SDS011;13765;51.166;4.466;2023-05-10T06:54:52;35.35;;;13.10;;
25972;SDS011;13765;51.166;4.466;2023-05-10T06:57:20;32.70;;;11.93;;
25972;SDS011;13765;51.166;4.466;2023-05-10T06:59:46;37.55;;;12.20;;
25972;SDS011;13765;51.166;4.466;2023-05-10T07:02:12;35.30;;;12.98;;
25972;SDS011;13765;51.166;4.466;2023-05-10T07:04:38;32.75;;;12.57;;
25972;SDS011;13765;51.166;4.466;2023-05-10T07:07:06;33.00;;;12.05;;
25972;SDS011;13765;51.166;4.466;2023-05-10T07:09:34;35.28;;;13.43;;
25972;SDS011;13765;51.166;4.466;2023-05-10T07:11:59;34.45;;;13.00;;
25972;SDS011;13765;51.166;4.466;2023-05-10T07:14:26;34.03;;;11.85;;
25972;SDS011;13765;51.166;4.466;2023-05-10T07:16:52;33.13;;;11.82;;
25972;SDS011;13765;51.166;4.466;2023-05-10T07:19:21;36.90;;;14.80;;
25972;SDS011;13765;51.166;4.466;2023-05-10T07:21:47;31.48;;;11.02;;
25972;SDS011;13765;51.166;4.466;2023-05-10T07:24:13;31.50;;;12.43;;
25972;SDS011;13765;51.166;4.466;2023-05-10T07:26:41;37.65;;;12.55;;
25972;SDS011;13765;51.166;4.466;2023-05-10T07:31:37;32.70;;;12.02;;
25972;SDS011;13765;51.166;4.466;2023-05-10T07:34:03;32.40;;;12.30;;
25972;SDS011;13765;51.166;4.466;2023-05-10T07:36:31;28.02;;;11.25;;
25972;SDS011;13765;51.166;4.466;2023-05-10T07:38:58;33.50;;;11.10;;
25972;SDS011;13765;51.166;4.466;2023-05-10T07:41:24;38.22;;;12.23;;
25972;SDS011;13765;51.166;4.466;2023-05-10T07:43:52;27.73;;;10.10;;
25972;SDS011;13765;51.166;4.466;2023-05-10T07:46:20;32.90;;;13.48;;
25972;SDS011;13765;51.166;4.466;2023-05-10T07:48:48;30.98;;;12.13;;
25972;SDS011;13765;51.166;4.466;2023-05-10T07:51:16;28.33;;;10.40;;
25972;SDS011;13765;51.166;4.466;2023-05-10T07:53:41;26.67;;;10.75;;
25972;SDS011;13765;51.166;4.466;2023-05-10T07:58:52;28.95;;;11.85;;
25972;SDS011;13765;51.166;4.466;2023-05-10T08:01:18;29.45;;;10.68;;
25972;SDS011;13765;51.166;4.466;2023-05-10T08:03:47;27.92;;;9.32;;
25972;SDS011;13765;51.166;4.466;2023-05-10T08:06:16;26.50;;;12.05;;
25972;SDS011;13765;51.166;4.466;2023-05-10T08:08:43;30.30;;;10.13;;
25972;SDS011;13765;51.166;4.466;2023-05-10T08:11:13;29.63;;;11.70;;
25972;SDS011;13765;51.166;4.466;2023-05-10T08:13:40;29.33;;;10.02;;
25972;SDS011;13765;51.166;4.466;2023-05-10T08:16:08;32.83;;;13.57;;
25972;SDS011;13765;51.166;4.466;2023-05-10T08:18:36;33.75;;;11.85;;
25972;SDS011;13765;51.166;4.466;2023-05-10T08:21:07;24.00;;;9.23;;
25972;SDS011;13765;51.166;4.466;2023-05-10T08:23:32;26.55;;;8.48;;
25972;SDS011;13765;51.166;4.466;2023-05-10T08:25:58;28.88;;;10.13;;
25972;SDS011;13765;51.166;4.466;2023-05-10T08:28:24;24.05;;;8.95;;
25972;SDS011;13765;51.166;4.466;2023-05-10T08:30:53;26.80;;;9.48;;
25972;SDS011;13765;51.166;4.466;2023-05-10T08:33:18;22.67;;;9.05;;
25972;SDS011;13765;51.166;4.466;2023-05-10T08:35:44;24.15;;;8.63;;
25972;SDS011;13765;51.166;4.466;2023-05-10T08:38:10;29.05;;;10.82;;
25972;SDS011;13765;51.166;4.466;2023-05-10T08:40:42;27.08;;;10.38;;
25972;SDS011;13765;51.166;4.466;2023-05-10T08:43:08;33.17;;;11.23;;
25972;SDS011;13765;51.166;4.466;2023-05-10T08:45:37;26.83;;;10.07;;
25972;SDS011;13765;51.166;4.466;2023-05-10T08:48:12;30.40;;;10.70;;
25972;SDS011;13765;51.166;4.466;2023-05-10T08:50:40;24.30;;;10.93;;
25972;SDS011;13765;51.166;4.466;2023-05-10T08:53:12;29.75;;;9.73;;
25972;SDS011;13765;51.166;4.466;2023-05-10T08:55:42;29.40;;;9.50;;
25972;SDS011;13765;51.166;4.466;2023-05-10T08:58:08;26.50;;;10.07;;
25972;SDS011;13765;51.166;4.466;2023-05-10T09:00:36;22.58;;;9.48;;
25972;SDS011;13765;51.166;4.466;2023-05-10T09:03:05;26.48;;;9.68;;
25972;SDS011;13765;51.166;4.466;2023-05-10T09:05:32;26.13;;;9.18;;
25972;SDS011;13765;51.166;4.466;2023-05-10T09:07:57;23.95;;;8.95;;
25972;SDS011;13765;51.166;4.466;2023-05-10T09:10:26;21.52;;;8.35;;
25972;SDS011;13765;51.166;4.466;2023-05-10T09:12:57;22.88;;;8.02;;
25972;SDS011;13765;51.166;4.466;2023-05-10T09:15:23;21.95;;;8.00;;
25972;SDS011;13765;51.166;4.466;2023-05-10T09:17:51;21.27;;;7.95;;
25972;SDS011;13765;51.166;4.466;2023-05-10T09:20:19;20.17;;;8.10;;
25972;SDS011;13765;51.166;4.466;2023-05-10T09:22:45;22.52;;;7.95;;
25972;SDS011;13765;51.166;4.466;2023-05-10T09:27:41;22.45;;;7.93;;
25972;SDS011;13765;51.166;4.466;2023-05-10T09:30:10;23.27;;;7.22;;
25972;SDS011;13765;51.166;4.466;2023-05-10T09:32:43;22.07;;;7.63;;
25972;SDS011;13765;51.166;4.466;2023-05-10T09:35:14;21.63;;;6.43;;
25972;SDS011;13765;51.166;4.466;2023-05-10T09:37:44;28.17;;;8.35;;
25972;SDS011;13765;51.166;4.466;2023-05-10T09:40:16;26.08;;;7.18;;
25972;SDS011;13765;51.166;4.466;2023-05-10T09:42:56;26.42;;;8.13;;
25972;SDS011;13765;51.166;4.466;2023-05-10T09:45:24;26.02;;;7.00;;
25972;SDS011;13765;51.166;4.466;2023-05-10T09:47:55;21.63;;;7.57;;
25972;SDS011;13765;51.166;4.466;2023-05-10T09:50:26;24.40;;;7.97;;
25972;SDS011;13765;51.166;4.466;2023-05-10T09:52:55;19.15;;;7.65;;
25972;SDS011;13765;51.166;4.466;2023-05-10T09:55:26;28.90;;;7.97;;
25972;SDS011;13765;51.166;4.466;2023-05-10T09:58:01;27.10;;;8.10;;
25972;SDS011;13765;51.166;4.466;2023-05-10T10:00:27;27.27;;;7.57;;
25972;SDS011;13765;51.166;4.466;2023-05-10T10:03:01;27.55;;;7.18;;
25972;SDS011;13765;51.166;4.466;2023-05-10T10:05:32;20.53;;;7.20;;
25972;SDS011;13765;51.166;4.466;2023-05-10T10:08:06;22.70;;;7.32;;
25972;SDS011;13765;51.166;4.466;2023-05-10T10:10:32;27.10;;;7.28;;
25972;SDS011;13765;51.166;4.466;2023-05-10T10:12:59;24.35;;;7.30;;
25972;SDS011;13765;51.166;4.466;2023-05-10T10:15:33;24.30;;;7.15;;
25972;SDS011;13765;51.166;4.466;2023-05-10T10:17:59;22.30;;;6.97;;
25972;SDS011;13765;51.166;4.466;2023-05-10T10:20:28;19.80;;;6.53;;
25972;SDS011;13765;51.166;4.466;2023-05-10T10:22:54;17.80;;;5.45;;
25972;SDS011;13765;51.166;4.466;2023-05-10T10:25:20;19.00;;;6.47;;
25972;SDS011;13765;51.166;4.466;2023-05-10T10:30:35;22.20;;;6.43;;
25972;SDS011;13765;51.166;4.466;2023-05-10T10:35:51;19.35;;;6.35;;
25972;SDS011;13765;51.166;4.466;2023-05-10T10:38:18;24.40;;;6.85;;
25972;SDS011;13765;51.166;4.466;2023-05-10T10:40:43;22.38;;;6.80;;
25972;SDS011;13765;51.166;4.466;2023-05-10T10:43:28;20.00;;;6.20;;
25972;SDS011;13765;51.166;4.466;2023-05-10T10:52:12;22.85;;;5.88;;
25972;SDS011;13765;51.166;4.466;2023-05-10T10:54:51;21.13;;;7.00;;
25972;SDS011;13765;51.166;4.466;2023-05-10T10:57:27;17.23;;;5.65;;
25972;SDS011;13765;51.166;4.466;2023-05-10T11:08:13;17.27;;;5.20;;
25972;SDS011;13765;51.166;4.466;2023-05-10T11:10:52;16.63;;;5.60;;
25972;SDS011;13765;51.166;4.466;2023-05-10T11:13:41;21.23;;;6.07;;
25972;SDS011;13765;51.166;4.466;2023-05-10T11:19:10;16.90;;;5.10;;
25972;SDS011;13765;51.166;4.466;2023-05-10T11:21:50;18.50;;;6.07;;
25972;SDS011;13765;51.166;4.466;2023-05-10T11:24:31;14.77;;;4.85;;
25972;SDS011;13765;51.166;4.466;2023-05-10T11:26:58;22.58;;;6.53;;
25972;SDS011;13765;51.166;4.466;2023-05-10T11:29:24;18.55;;;5.90;;
25972;SDS011;13765;51.166;4.466;2023-05-10T11:31:51;24.58;;;5.80;;
25972;SDS011;13765;51.166;4.466;2023-05-10T11:37:12;13.25;;;4.30;;
25972;SDS011;13765;51.166;4.466;2023-05-10T11:39:45;23.70;;;6.07;;
25972;SDS011;13765;51.166;4.466;2023-05-10T11:42:12;18.65;;;5.40;;
25972;SDS011;13765;51.166;4.466;2023-05-10T11:44:37;15.60;;;4.93;;
25972;SDS011;13765;51.166;4.466;2023-05-10T11:47:04;23.88;;;6.10;;
25972;SDS011;13765;51.166;4.466;2023-05-10T11:49:35;23.05;;;7.05;;
25972;SDS011;13765;51.166;4.466;2023-05-10T11:52:07;12.48;;;4.95;;
25972;SDS011;13765;51.166;4.466;2023-05-10T11:54:33;20.73;;;6.25;;
25972;SDS011;13765;51.166;4.466;2023-05-10T11:57:02;19.50;;;5.78;;
25972;SDS011;13765;51.166;4.466;2023-05-10T11:59:28;18.40;;;6.07;;
25972;SDS011;13765;51.166;4.466;2023-05-10T12:01:54;17.13;;;5.18;;
25972;SDS011;13765;51.166;4.466;2023-05-10T12:04:20;13.32;;;4.78;;
25972;SDS011;13765;51.166;4.466;2023-05-10T12:06:48;18.73;;;5.97;;
25972;SDS011;13765;51.166;4.466;2023-05-10T12:09:16;16.23;;;5.32;;
25972;SDS011;13765;51.166;4.466;2023-05-10T12:11:42;20.33;;;6.47;;
25972;SDS011;13765;51.166;4.466;2023-05-10T12:14:08;19.15;;;5.68;;
25972;SDS011;13765;51.166;4.466;2023-05-10T12:16:36;14.93;;;4.20;;
25972;SDS011;13765;51.166;4.466;2023-05-10T12:19:04;18.38;;;5.60;;
25972;SDS011;13765;51.166;4.466;2023-05-10T12:21:30;15.93;;;4.75;;
25972;SDS011;13765;51.166;4.466;2023-05-10T12:23:59;17.13;;;5.68;;
25972;SDS011;13765;51.166;4.466;2023-05-10T12:26:30;16.83;;;5.20;;
25972;SDS011;13765;51.166;4.466;2023-05-10T12:29:11;18.40;;;5.93;;
25972;SDS011;13765;51.166;4.466;2023-05-10T12:31:57;17.17;;;5.55;;
25972;SDS011;13765;51.166;4.466;2023-05-10T12:34:33;20.45;;;5.68;;
25972;SDS011;13765;51.166;4.466;2023-05-10T12:37:02;18.33;;;5.57;;
25972;SDS011;13765;51.166;4.466;2023-05-10T12:39:43;20.25;;;6.57;;
25972;SDS011;13765;51.166;4.466;2023-05-10T12:42:09;17.30;;;5.78;;
25972;SDS011;13765;51.166;4.466;2023-05-10T12:44:35;17.92;;;6.22;;
25972;SDS011;13765;51.166;4.466;2023-05-10T12:47:06;19.15;;;6.60;;
25972;SDS011;13765;51.166;4.466;2023-05-10T12:49:33;19.40;;;5.53;;
25972;SDS011;13765;51.166;4.466;2023-05-10T12:52:04;14.35;;;4.95;;
25972;SDS011;13765;51.166;4.466;2023-05-10T12:54:32;19.92;;;5.82;;
25972;SDS011;13765;51.166;4.466;2023-05-10T12:57:00;15.18;;;4.90;;
25972;SDS011;13765;51.166;4.466;2023-05-10T12:59:26;18.50;;;5.93;;
25972;SDS011;13765;51.166;4.466;2023-05-10T13:01:52;18.10;;;5.85;;
25972;SDS011;13765;51.166;4.466;2023-05-10T13:04:21;18.52;;;5.82;;
25972;SDS011;13765;51.166;4.466;2023-05-10T13:06:49;19.88;;;5.10;;
25972;SDS011;13765;51.166;4.466;2023-05-10T13:09:17;16.42;;;5.80;;
25972;SDS011;13765;51.166;4.466;2023-05-10T13:11:43;19.45;;;5.22;;
25972;SDS011;13765;51.166;4.466;2023-05-10T13:14:10;17.05;;;5.10;;
25972;SDS011;13765;51.166;4.466;2023-05-10T13:16:38;19.95;;;5.60;;
25972;SDS011;13765;51.166;4.466;2023-05-10T13:19:04;17.15;;;5.68;;
25972;SDS011;13765;51.166;4.466;2023-05-10T13:21:29;16.65;;;5.93;;
25972;SDS011;13765;51.166;4.466;2023-05-10T13:23:57;14.98;;;5.03;;
25972;SDS011;13765;51.166;4.466;2023-05-10T13:26:28;19.23;;;5.43;;
25972;SDS011;13765;51.166;4.466;2023-05-10T13:28:54;22.10;;;5.93;;
25972;SDS011;13765;51.166;4.466;2023-05-10T13:31:20;21.15;;;5.82;;
25972;SDS011;13765;51.166;4.466;2023-05-10T13:33:46;24.65;;;6.47;;
25972;SDS011;13765;51.166;4.466;2023-05-10T13:36:14;17.23;;;5.25;;
25972;SDS011;13765;51.166;4.466;2023-05-10T13:38:40;16.73;;;5.97;;
25972;SDS011;13765;51.166;4.466;2023-05-10T13:41:05;19.55;;;5.85;;
25972;SDS011;13765;51.166;4.466;2023-05-10T13:43:31;18.90;;;6.35;;
25972;SDS011;13765;51.166;4.466;2023-05-10T13:46:00;19.05;;;7.97;;
25972;SDS011;13765;51.166;4.466;2023-05-10T13:48:26;19.88;;;6.18;;
25972;SDS011;13765;51.166;4.466;2023-05-10T13:50:54;17.25;;;5.30;;
25972;SDS011;13765;51.166;4.466;2023-05-10T13:53:20;19.98;;;5.10;;
25972;SDS011;13765;51.166;4.466;2023-05-10T13:55:46;16.10;;;5.07;;
25972;SDS011;13765;51.166;4.466;2023-05-10T13:58:14;18.40;;;5.18;;
25972;SDS011;13765;51.166;4.466;2023-05-10T14:00:40;19.30;;;6.45;;
25972;SDS011;13765;51.166;4.466;2023-05-10T14:03:05;21.48;;;5.60;;
25972;SDS011;13765;51.166;4.466;2023-05-10T14:05:35;16.27;;;5.07;;
25972;SDS011;13765;51.166;4.466;2023-05-10T14:08:01;17.30;;;4.88;;
25972;SDS011;13765;51.166;4.466;2023-05-10T14:10:28;14.65;;;4.57;;
25972;SDS011;13765;51.166;4.466;2023-05-10T14:12:56;17.00;;;5.53;;
25972;SDS011;13765;51.166;4.466;2023-05-10T14:15:22;13.95;;;4.60;;
25972;SDS011;13765;51.166;4.466;2023-05-10T14:17:50;17.88;;;5.68;;
25972;SDS011;13765;51.166;4.466;2023-05-10T14:20:18;17.63;;;6.00;;
25972;SDS011;13765;51.166;4.466;2023-05-10T14:22:44;18.02;;;5.63;;
25972;SDS011;13765;51.166;4.466;2023-05-10T14:25:10;21.02;;;6.60;;
25972;SDS011;13765;51.166;4.466;2023-05-10T14:27:36;17.60;;;5.80;;
25972;SDS011;13765;51.166;4.466;2023-05-10T14:30:02;17.45;;;6.63;;
25972;SDS011;13765;51.166;4.466;2023-05-10T14:32:27;24.60;;;6.35;;
25972;SDS011;13765;51.166;4.466;2023-05-10T14:34:55;19.13;;;6.03;;
25972;SDS011;13765;51.166;4.466;2023-05-10T14:37:26;16.17;;;5.75;;
25972;SDS011;13765;51.166;4.466;2023-05-10T14:39:51;19.55;;;6.00;;
25972;SDS011;13765;51.166;4.466;2023-05-10T14:42:19;21.30;;;5.55;;
25972;SDS011;13765;51.166;4.466;2023-05-10T14:44:47;18.25;;;6.13;;
25972;SDS011;13765;51.166;4.466;2023-05-10T14:47:15;22.33;;;6.82;;
25972;SDS011;13765;51.166;4.466;2023-05-10T14:49:41;18.65;;;6.03;;
25972;SDS011;13765;51.166;4.466;2023-05-10T14:52:06;17.73;;;7.03;;
25972;SDS011;13765;51.166;4.466;2023-05-10T14:54:32;18.48;;;6.57;;
25972;SDS011;13765;51.166;4.466;2023-05-10T14:56:58;22.50;;;6.03;;
25972;SDS011;13765;51.166;4.466;2023-05-10T14:59:25;20.20;;;7.22;;
25972;SDS011;13765;51.166;4.466;2023-05-10T15:01:50;22.05;;;7.40;;
25972;SDS011;13765;51.166;4.466;2023-05-10T15:04:16;17.67;;;5.88;;
25972;SDS011;13765;51.166;4.466;2023-05-10T15:06:44;10.48;;;3.65;;
25972;SDS011;13765;51.166;4.466;2023-05-10T15:09:12;12.23;;;3.65;;
25972;SDS011;13765;51.166;4.466;2023-05-10T15:11:38;10.27;;;3.55;;
25972;SDS011;13765;51.166;4.466;2023-05-10T15:14:06;11.30;;;3.42;;
25972;SDS011;13765;51.166;4.466;2023-05-10T15:16:31;6.28;;;2.70;;
25972;SDS011;13765;51.166;4.466;2023-05-10T15:19:00;6.35;;;1.77;;
25972;SDS011;13765;51.166;4.466;2023-05-10T15:21:25;2.47;;;1.35;;
25972;SDS011;13765;51.166;4.466;2023-05-10T15:23:55;6.90;;;2.00;;
25972;SDS011;13765;51.166;4.466;2023-05-10T15:26:23;3.80;;;1.77;;
25972;SDS011;13765;51.166;4.466;2023-05-10T15:28:51;6.78;;;3.15;;
25972;SDS011;13765;51.166;4.466;2023-05-10T15:31:17;5.13;;;2.53;;
25972;SDS011;13765;51.166;4.466;2023-05-10T15:33:44;6.30;;;2.83;;